createdAt,value
2023-01-15T00:00:06.141Z,34.67
2023-01-15T00:02:33.088Z,35.00
2023-01-15T00:05:03.047Z,38.95
2023-01-15T00:07:30.900Z,34.78
2023-01-15T00:09:58.180Z,34.10
2023-01-15T00:12:25.425Z,34.13
2023-01-15T00:14:52.724Z,34.13
2023-01-15T00:17:19.776Z,30.52
2023-01-15T00:19:47.129Z,36.95
2023-01-15T00:22:14.061Z,31.98
2023-01-15T00:24:59.669Z,34.00
2023-01-15T00:27:40.738Z,30.27
2023-01-15T00:30:14.830Z,36.70
2023-01-15T00:32:42.905Z,30.67
2023-01-15T00:35:23.346Z,35.70
2023-01-15T00:37:50.724Z,39.88
2023-01-15T00:40:19.697Z,35.53
2023-01-15T00:42:54.161Z,33.80
2023-01-15T00:45:22.403Z,36.55
2023-01-15T00:47:50.580Z,37.25
2023-01-15T00:50:17.519Z,37.80
2023-01-15T00:52:44.573Z,36.83
2023-01-15T00:55:11.532Z,34.08
2023-01-15T00:57:38.693Z,35.20
2023-01-15T01:00:06.541Z,36.70
2023-01-15T01:02:33.647Z,38.72
2023-01-15T01:05:00.833Z,36.60
2023-01-15T01:07:27.732Z,34.30
2023-01-15T01:09:54.886Z,38.28
2023-01-15T01:12:23.597Z,34.78
2023-01-15T01:14:50.640Z,33.97
2023-01-15T01:17:17.713Z,36.63
2023-01-15T01:19:44.675Z,34.80
2023-01-15T01:22:11.816Z,38.72
2023-01-15T01:24:38.833Z,37.70
2023-01-15T01:27:07.270Z,38.83
2023-01-15T01:29:34.457Z,36.90
2023-01-15T01:32:01.724Z,33.20
2023-01-15T01:34:28.769Z,35.40
2023-01-15T01:36:55.795Z,34.38
2023-01-15T01:39:22.763Z,33.33
2023-01-15T01:41:49.879Z,34.55
2023-01-15T01:44:35.141Z,34.10
2023-01-15T01:47:08.188Z,32.70
2023-01-15T01:49:37.898Z,34.78
2023-01-15T01:52:10.050Z,36.58
2023-01-15T01:54:38.525Z,38.35
2023-01-15T01:57:07.145Z,36.70
2023-01-15T01:59:35.029Z,35.00
2023-01-15T02:02:03.352Z,36.97
2023-01-15T02:04:31.771Z,38.40
2023-01-15T02:07:01.236Z,39.67
2023-01-15T02:09:28.378Z,36.38
2023-01-15T02:12:01.452Z,40.58
2023-01-15T02:14:39.125Z,36.38
2023-01-15T02:17:16.779Z,36.60
2023-01-15T02:20:20.995Z,37.30
2023-01-15T02:22:55.078Z,41.03
2023-01-15T02:25:41.679Z,39.13
2023-01-15T02:28:16.128Z,36.53
2023-01-15T02:30:49.157Z,36.22
2023-01-15T02:33:47.886Z,36.85
2023-01-15T02:36:19.419Z,35.65
2023-01-15T02:38:52.902Z,34.50
2023-01-15T02:41:25.047Z,33.78
2023-01-15T02:43:56.557Z,37.05
2023-01-15T02:46:30.830Z,32.65
2023-01-15T02:49:00.632Z,35.30
2023-01-15T02:51:39.859Z,45.25
2023-01-15T02:54:12.170Z,36.97
2023-01-15T02:56:42.812Z,40.05
2023-01-15T02:59:17.578Z,41.22
2023-01-15T03:04:47.730Z,41.53
2023-01-15T03:07:20.492Z,48.45
2023-01-15T03:09:49.682Z,45.60
2023-01-15T03:13:02.373Z,47.28
2023-01-15T03:16:05.515Z,51.67
2023-01-15T03:18:38.997Z,56.20
2023-01-15T03:21:12.654Z,46.70
2023-01-15T03:23:45.568Z,52.85
2023-01-15T03:26:12.677Z,48.42
2023-01-15T03:28:44.939Z,51.47
2023-01-15T03:31:12.135Z,46.88
2023-01-15T03:33:39.086Z,53.67
2023-01-15T03:36:12.990Z,46.70
2023-01-15T03:38:47.203Z,42.42
2023-01-15T03:41:35.445Z,43.75
2023-01-15T03:44:16.692Z,42.92
2023-01-15T03:46:54.554Z,40.45
2023-01-15T03:49:35.137Z,42.42
2023-01-15T03:52:18.492Z,40.80
2023-01-15T03:55:07.771Z,43.35
2023-01-15T03:57:43.690Z,37.40
2023-01-15T04:00:20.667Z,38.65
2023-01-15T04:02:54.315Z,37.60
2023-01-15T04:05:24.806Z,42.67
2023-01-15T04:07:54.274Z,36.28
2023-01-15T04:10:22.239Z,38.88
2023-01-15T04:12:50.724Z,31.23
2023-01-15T04:15:19.658Z,34.35
2023-01-15T04:17:46.829Z,32.42
2023-01-15T04:20:14.700Z,33.38
2023-01-15T04:22:43.782Z,38.80
2023-01-15T04:25:10.881Z,35.25
2023-01-15T04:27:38.065Z,37.45
2023-01-15T04:30:05.768Z,35.28
2023-01-15T04:32:32.907Z,33.25
2023-01-15T04:34:59.856Z,32.55
2023-01-15T04:37:26.796Z,38.75
2023-01-15T04:39:53.725Z,34.72
2023-01-15T04:42:39.310Z,37.25
2023-01-15T04:45:06.845Z,38.17
2023-01-15T04:47:33.829Z,34.53
2023-01-15T04:50:00.796Z,33.38
2023-01-15T04:52:27.738Z,35.72
2023-01-15T04:54:55.755Z,38.05
2023-01-15T04:57:22.728Z,39.30
2023-01-15T04:59:49.700Z,40.63
2023-01-15T05:02:16.986Z,35.03
2023-01-15T05:04:44.151Z,34.20
2023-01-15T05:07:11.196Z,36.03
2023-01-15T05:09:38.163Z,37.10
2023-01-15T05:12:05.591Z,35.97
2023-01-15T05:14:32.517Z,34.25
2023-01-15T05:16:59.677Z,37.05
2023-01-15T05:19:26.668Z,35.33
2023-01-15T05:21:53.735Z,36.53
2023-01-15T05:24:20.689Z,37.53
2023-01-15T05:26:47.799Z,37.58
2023-01-15T05:29:14.946Z,42.38
2023-01-15T05:31:45.015Z,35.42
2023-01-15T05:34:13.155Z,34.03
2023-01-15T05:36:40.695Z,40.05
2023-01-15T05:39:08.303Z,38.10
2023-01-15T05:41:50.670Z,39.22
2023-01-15T05:44:24.088Z,38.47
2023-01-15T05:46:53.548Z,38.90
2023-01-15T05:49:23.627Z,39.08
2023-01-15T05:51:51.603Z,39.40
2023-01-15T05:54:30.292Z,36.28
2023-01-15T05:56:57.522Z,39.17
2023-01-15T05:59:26.645Z,39.08
2023-01-15T06:01:54.427Z,41.22
2023-01-15T06:04:21.867Z,38.40
2023-01-15T06:06:50.481Z,36.72
2023-01-15T06:09:18.288Z,36.47
2023-01-15T06:11:45.596Z,36.70
2023-01-15T06:14:13.141Z,38.00
2023-01-15T06:16:41.546Z,41.47
2023-01-15T06:19:11.151Z,40.08
2023-01-15T06:21:38.269Z,39.67
2023-01-15T06:24:05.914Z,42.88
2023-01-15T06:26:33.512Z,46.50
2023-01-15T06:29:00.687Z,40.38
2023-01-15T06:31:27.981Z,40.78
2023-01-15T06:33:55.500Z,41.22
2023-01-15T06:36:24.420Z,39.97
2023-01-15T06:38:51.841Z,44.47
2023-01-15T06:41:41.597Z,41.20
2023-01-15T06:44:32.278Z,41.00
2023-01-15T06:47:21.095Z,40.95
2023-01-15T06:49:56.708Z,44.63
2023-01-15T06:52:28.481Z,41.40
2023-01-15T06:54:55.869Z,45.42
2023-01-15T06:57:23.377Z,41.60
2023-01-15T06:59:51.269Z,43.03
2023-01-15T07:02:18.629Z,43.28
2023-01-15T07:04:46.669Z,43.90
2023-01-15T07:07:15.586Z,40.65
2023-01-15T07:09:42.677Z,46.13
2023-01-15T07:12:09.639Z,45.83
2023-01-15T07:14:36.881Z,46.15
2023-01-15T07:17:03.962Z,47.58
2023-01-15T07:19:30.996Z,45.22
2023-01-15T07:21:58.090Z,47.47
2023-01-15T07:24:25.109Z,43.25
2023-01-15T07:26:52.055Z,43.05
2023-01-15T07:29:19.028Z,47.50
2023-01-15T07:31:46.101Z,46.47
2023-01-15T07:34:13.182Z,45.80
2023-01-15T07:36:40.230Z,51.13
2023-01-15T07:39:09.098Z,49.15
2023-01-15T07:41:54.713Z,49.33
2023-01-15T07:44:41.658Z,44.97
2023-01-15T07:47:47.806Z,44.90
2023-01-15T07:50:21.433Z,45.85
2023-01-15T07:52:48.495Z,45.35
2023-01-15T07:55:15.784Z,47.40
2023-01-15T07:57:43.587Z,49.13
2023-01-15T08:00:14.087Z,46.78
2023-01-15T08:02:41.815Z,47.95
2023-01-15T08:05:09.649Z,49.58
2023-01-15T08:07:41.378Z,46.65
2023-01-15T08:10:10.407Z,48.55
2023-01-15T08:12:57.522Z,51.50
2023-01-15T08:15:25.881Z,44.90
2023-01-15T08:17:53.330Z,49.25
2023-01-15T08:20:23.393Z,47.60
2023-01-15T08:22:50.886Z,49.38
2023-01-15T08:25:23.626Z,48.15
2023-01-15T08:27:51.723Z,49.92
2023-01-15T08:30:24.644Z,52.38
2023-01-15T08:32:52.146Z,53.83
2023-01-15T08:35:19.544Z,53.22
2023-01-15T08:37:46.728Z,52.70
2023-01-15T08:40:13.903Z,55.92
2023-01-15T08:42:41.186Z,54.17
2023-01-15T08:45:09.325Z,49.67
2023-01-15T08:47:37.388Z,51.20
2023-01-15T08:50:09.593Z,53.38
2023-01-15T08:52:38.332Z,55.80
2023-01-15T08:55:06.352Z,56.78
2023-01-15T08:57:34.005Z,65.18
2023-01-15T09:00:01.009Z,61.58
2023-01-15T09:02:29.864Z,56.28
2023-01-15T09:04:57.113Z,60.35
2023-01-15T09:07:24.516Z,61.65
2023-01-15T09:09:51.514Z,58.95
2023-01-15T09:12:18.756Z,55.45
2023-01-15T09:14:56.941Z,55.88
2023-01-15T09:17:31.903Z,52.92
2023-01-15T09:20:00.088Z,55.38
2023-01-15T09:22:30.125Z,52.75
2023-01-15T09:24:57.357Z,53.40
2023-01-15T09:27:24.294Z,52.97
2023-01-15T09:29:51.362Z,56.92
2023-01-15T09:32:18.305Z,55.40
2023-01-15T09:34:45.291Z,66.80
2023-01-15T09:37:12.388Z,53.13
2023-01-15T09:39:39.423Z,56.03
2023-01-15T09:42:32.746Z,60.85
2023-01-15T09:45:10.050Z,49.53
2023-01-15T09:47:59.403Z,59.85
2023-01-15T09:50:41.979Z,63.03
2023-01-15T09:53:27.817Z,65.63
2023-01-15T09:55:55.209Z,69.82
2023-01-15T09:58:32.754Z,71.65
2023-01-15T10:01:00.407Z,67.55
2023-01-15T10:03:45.156Z,82.68
2023-01-15T10:06:31.096Z,71.15
2023-01-15T10:09:12.425Z,76.47
2023-01-15T10:12:04.257Z,74.43
2023-01-15T10:14:43.668Z,82.03
2023-01-15T10:17:27.148Z,69.82
2023-01-15T10:19:55.166Z,74.68
2023-01-15T10:22:27.754Z,72.20
2023-01-15T10:24:58.049Z,73.43
2023-01-15T10:27:30.219Z,80.80
2023-01-15T10:30:12.197Z,74.75
2023-01-15T10:33:07.104Z,74.47
2023-01-15T10:35:41.991Z,75.55
2023-01-15T10:38:37.386Z,71.87
2023-01-15T10:41:27.157Z,73.65
2023-01-15T10:43:57.975Z,78.20
2023-01-15T10:46:28.217Z,76.90
2023-01-15T10:48:59.906Z,77.82
2023-01-15T10:51:51.451Z,83.60
2023-01-15T10:54:28.188Z,76.85
2023-01-15T10:57:05.059Z,79.03
2023-01-15T10:59:38.051Z,74.93
2023-01-15T11:02:27.300Z,84.28
2023-01-15T11:04:54.580Z,78.28
2023-01-15T11:08:05.563Z,80.65
2023-01-15T11:10:30.506Z,83.35
2023-01-15T11:13:43.180Z,85.70
2023-01-15T11:16:38.960Z,92.43
2023-01-15T11:19:36.965Z,87.40
2023-01-15T11:22:22.070Z,86.85
2023-01-15T11:24:56.701Z,85.20
2023-01-15T11:27:34.065Z,87.38
2023-01-15T11:30:04.002Z,86.78
2023-01-15T11:32:38.780Z,85.45
2023-01-15T11:35:09.115Z,84.93
2023-01-15T11:37:36.098Z,82.63
2023-01-15T11:40:08.081Z,94.57
2023-01-15T11:42:56.557Z,87.93
2023-01-15T11:45:44.069Z,83.75
2023-01-15T11:48:40.937Z,85.57
2023-01-15T11:51:14.423Z,84.00
2023-01-15T11:53:49.448Z,90.05
2023-01-15T11:56:19.932Z,82.38
2023-01-15T11:58:51.044Z,81.72
2023-01-15T12:01:36.902Z,86.50
2023-01-15T12:04:24.481Z,91.13
2023-01-15T12:06:51.610Z,87.22
2023-01-15T12:09:39.900Z,83.32
2023-01-15T12:12:16.556Z,81.53
2023-01-15T12:15:24.877Z,76.97
2023-01-15T12:18:07.490Z,78.40
2023-01-15T12:20:56.458Z,80.45
2023-01-15T12:24:01.574Z,83.82
2023-01-15T12:26:35.463Z,81.55
2023-01-15T12:29:24.317Z,78.72
2023-01-15T12:31:59.618Z,82.75
2023-01-15T12:34:36.814Z,84.30
2023-01-15T12:37:09.905Z,78.30
2023-01-15T12:40:08.671Z,79.75
2023-01-15T12:42:55.484Z,84.72
2023-01-15T12:45:27.132Z,70.45
2023-01-15T12:48:02.428Z,80.65
2023-01-15T12:50:52.172Z,77.38
2023-01-15T12:53:42.792Z,76.32
2023-01-15T12:56:24.457Z,81.65
2023-01-15T12:59:32.110Z,72.93
2023-01-15T13:02:29.728Z,80.00
2023-01-15T13:05:28.024Z,83.40
2023-01-15T13:08:16.992Z,77.90
2023-01-15T13:10:44.533Z,80.85
2023-01-15T13:13:16.478Z,84.50
2023-01-15T13:16:06.507Z,83.18
2023-01-15T13:18:57.476Z,80.88
2023-01-15T13:21:28.817Z,85.60
2023-01-15T13:24:19.811Z,88.57
2023-01-15T13:27:05.671Z,82.90
2023-01-15T13:29:47.635Z,78.05
2023-01-15T13:32:18.390Z,88.47
2023-01-15T13:35:10.372Z,85.93
2023-01-15T13:37:47.258Z,84.22
2023-01-15T13:40:33.007Z,78.43
2023-01-15T13:43:01.115Z,78.03
2023-01-15T13:45:39.264Z,77.78
2023-01-15T13:48:55.309Z,79.75
2023-01-15T13:51:32.922Z,70.55
2023-01-15T13:54:00.964Z,75.93
2023-01-15T13:56:31.095Z,69.57
2023-01-15T13:59:02.941Z,75.88
2023-01-15T14:01:37.301Z,64.70
2023-01-15T14:04:10.611Z,62.22
2023-01-15T14:06:46.657Z,66.32
2023-01-15T14:09:20.684Z,57.90
2023-01-15T14:12:05.549Z,58.13
2023-01-15T14:14:47.461Z,52.05
2023-01-15T14:17:47.647Z,61.60
2023-01-15T14:20:33.952Z,53.20
2023-01-15T14:25:40.355Z,56.35
2023-01-15T14:28:36.459Z,55.88
2023-01-15T14:31:14.437Z,58.38
2023-01-15T14:33:51.318Z,50.00
2023-01-15T14:36:30.224Z,50.50
2023-01-15T14:39:00.048Z,50.88
2023-01-15T14:41:30.728Z,51.53
2023-01-15T14:44:01.426Z,52.72
2023-01-15T14:46:34.457Z,52.60
2023-01-15T14:49:02.378Z,48.53
2023-01-15T14:51:37.287Z,47.53
2023-01-15T14:54:11.260Z,42.42
2023-01-15T14:56:44.164Z,45.95
2023-01-15T14:59:25.788Z,51.90
2023-01-15T15:01:57.132Z,53.13
2023-01-15T15:04:54.824Z,53.03
2023-01-15T15:07:25.416Z,50.83
2023-01-15T15:10:13.678Z,58.38
2023-01-15T15:12:49.831Z,54.10
2023-01-15T15:15:24.819Z,58.60
2023-01-15T15:18:06.046Z,56.80
2023-01-15T15:20:41.972Z,50.15
2023-01-15T15:23:15.160Z,60.67
2023-01-15T15:25:43.294Z,53.40
2023-01-15T15:28:12.197Z,51.17
2023-01-15T15:30:44.903Z,48.60
2023-01-15T15:33:25.119Z,51.55
2023-01-15T15:35:58.380Z,49.20
2023-01-15T15:38:26.298Z,48.35
2023-01-15T15:41:02.685Z,53.88
2023-01-15T15:44:00.616Z,49.38
2023-01-15T15:46:51.619Z,45.83
2023-01-15T15:49:20.117Z,46.65
2023-01-15T15:51:52.623Z,46.47
2023-01-15T15:54:23.952Z,50.15
2023-01-15T15:57:02.024Z,45.47
2023-01-15T15:59:43.828Z,48.85
2023-01-15T16:02:18.101Z,50.65
2023-01-15T16:04:56.473Z,49.58
2023-01-15T16:07:29.773Z,50.50
2023-01-15T16:10:12.607Z,47.90
2023-01-15T16:12:54.622Z,51.60
2023-01-15T16:15:29.588Z,53.20
2023-01-15T16:18:01.533Z,49.63
2023-01-15T16:20:28.721Z,51.60
2023-01-15T16:23:04.008Z,51.53
2023-01-15T16:25:35.768Z,52.35
2023-01-15T16:28:04.453Z,52.92
2023-01-15T16:30:32.669Z,52.85
2023-01-15T16:33:07.750Z,52.63
2023-01-15T16:35:37.073Z,50.30
2023-01-15T16:38:05.008Z,59.67
2023-01-15T16:40:40.217Z,56.92
2023-01-15T16:43:23.602Z,53.80
2023-01-15T16:45:56.352Z,56.63
2023-01-15T16:48:36.759Z,54.08
2023-01-15T16:51:26.991Z,54.67
2023-01-15T16:53:54.536Z,51.72
2023-01-15T16:56:39.771Z,50.90
2023-01-15T16:59:17.697Z,54.35
2023-01-15T17:01:47.371Z,52.60
2023-01-15T17:04:21.258Z,52.70
2023-01-15T17:07:04.264Z,54.30
2023-01-15T17:09:34.440Z,51.13
2023-01-15T17:12:09.078Z,54.75
2023-01-15T17:14:36.143Z,52.85
2023-01-15T17:17:15.187Z,51.90
2023-01-15T17:19:42.990Z,54.13
2023-01-15T17:22:16.816Z,53.45
2023-01-15T17:24:51.634Z,53.20
2023-01-15T17:27:18.660Z,58.60
2023-01-15T17:29:45.803Z,57.10
2023-01-15T17:32:26.083Z,55.78
2023-01-15T17:34:53.064Z,53.15
2023-01-15T17:37:20.167Z,54.67
2023-01-15T17:39:47.129Z,55.70
2023-01-15T17:42:19.334Z,54.17
2023-01-15T17:44:46.543Z,58.00
2023-01-15T17:47:13.810Z,52.47
2023-01-15T17:49:40.867Z,55.53
2023-01-15T17:52:18.133Z,54.97
2023-01-15T17:55:03.586Z,58.13
2023-01-15T17:57:49.143Z,54.83
2023-01-15T18:00:35.180Z,58.55
2023-01-15T18:03:21.213Z,55.17
2023-01-15T18:05:51.079Z,65.18
2023-01-15T18:08:18.885Z,54.97
2023-01-15T18:10:45.870Z,60.53
2023-01-15T18:13:12.831Z,61.10
2023-01-15T18:15:39.793Z,61.03
2023-01-15T18:18:06.759Z,61.95
2023-01-15T18:20:33.873Z,61.75
2023-01-15T18:23:00.852Z,61.83
2023-01-15T18:25:27.823Z,68.40
2023-01-15T18:27:54.728Z,59.88
2023-01-15T18:30:21.758Z,57.03
2023-01-15T18:32:48.995Z,59.95
2023-01-15T18:35:17.323Z,57.10
2023-01-15T18:37:44.986Z,60.70
2023-01-15T18:40:12.717Z,57.67
2023-01-15T18:42:59.157Z,60.95
2023-01-15T18:45:45.397Z,57.22
2023-01-15T18:50:39.182Z,65.25
2023-01-15T18:53:08.405Z,56.72
2023-01-15T18:55:35.537Z,55.10
2023-01-15T18:58:02.675Z,56.78
2023-01-15T19:00:29.759Z,61.47
2023-01-15T19:02:56.818Z,57.78
2023-01-15T19:05:24.198Z,61.78
2023-01-15T19:07:51.216Z,61.15
2023-01-15T19:10:18.662Z,58.60
2023-01-15T19:12:45.940Z,59.63
2023-01-15T19:15:37.824Z,60.28
2023-01-15T19:18:24.325Z,58.38
2023-01-15T19:20:51.269Z,56.22
2023-01-15T19:23:20.735Z,78.72
2023-01-15T19:25:49.466Z,58.33
2023-01-15T19:28:19.776Z,60.85
2023-01-15T19:31:11.414Z,57.72
2023-01-15T19:33:38.466Z,61.88
2023-01-15T19:36:05.902Z,65.15
2023-01-15T19:38:36.062Z,61.13
2023-01-15T19:41:48.064Z,65.95
2023-01-15T19:44:41.268Z,64.50
2023-01-15T19:47:47.541Z,68.40
2023-01-15T19:50:20.193Z,66.03
2023-01-15T19:52:49.057Z,73.47
2023-01-15T19:55:17.747Z,68.07
2023-01-15T19:57:47.411Z,62.72
2023-01-15T20:00:18.140Z,65.22
2023-01-15T20:02:46.284Z,66.47
2023-01-15T20:05:15.010Z,70.18
2023-01-15T20:07:42.908Z,71.65
2023-01-15T20:10:13.273Z,71.15
2023-01-15T20:12:59.551Z,63.45
2023-01-15T20:17:54.386Z,67.97
2023-01-15T20:20:22.134Z,75.07
2023-01-15T20:22:50.267Z,75.70
2023-01-15T20:25:17.707Z,77.90
2023-01-15T20:27:45.263Z,92.72
2023-01-15T20:30:15.066Z,76.85
2023-01-15T20:32:44.374Z,80.28
2023-01-15T20:35:14.557Z,80.97
2023-01-15T20:37:41.591Z,89.82
2023-01-15T20:40:09.719Z,97.90
2023-01-15T20:42:55.268Z,87.25
2023-01-15T20:45:22.431Z,85.95
2023-01-15T20:48:07.871Z,79.15
2023-01-15T20:50:36.458Z,93.40
2023-01-15T20:53:05.486Z,86.75
2023-01-15T20:55:54.794Z,82.18
2023-01-15T20:58:24.314Z,76.43
2023-01-15T21:00:52.095Z,85.35
2023-01-15T21:03:20.463Z,69.82
2023-01-15T21:05:47.824Z,64.25
2023-01-15T21:08:15.172Z,67.80
2023-01-15T21:10:42.374Z,69.20
2023-01-15T21:13:09.386Z,67.65
2023-01-15T21:15:39.033Z,73.82
2023-01-15T21:18:06.147Z,83.60
2023-01-15T21:20:33.141Z,83.38
2023-01-15T21:23:00.231Z,80.60
2023-01-15T21:25:27.396Z,87.38
2023-01-15T21:27:54.528Z,86.03
2023-01-15T21:30:21.508Z,85.68
2023-01-15T21:32:48.793Z,88.57
2023-01-15T21:35:16.075Z,88.22
2023-01-15T21:37:43.088Z,90.65
2023-01-15T21:40:11.919Z,92.53
2023-01-15T21:42:57.629Z,94.00
2023-01-15T21:45:24.691Z,87.95
2023-01-15T21:47:51.974Z,88.82
2023-01-15T21:50:20.387Z,95.85
2023-01-15T21:52:48.468Z,88.80
2023-01-15T21:55:15.534Z,83.07
2023-01-15T21:57:42.723Z,79.95
2023-01-15T22:00:11.583Z,86.03
2023-01-15T22:02:38.645Z,90.25
2023-01-15T22:05:06.222Z,84.18
2023-01-15T22:07:33.174Z,87.55
2023-01-15T22:10:01.647Z,85.10
2023-01-15T22:12:28.602Z,81.75
2023-01-15T22:14:57.504Z,97.05
2023-01-15T22:17:24.490Z,83.80
2023-01-15T22:19:51.534Z,89.22
2023-01-15T22:22:18.748Z,89.45
2023-01-15T22:24:45.743Z,89.68
2023-01-15T22:27:16.107Z,90.47
2023-01-15T22:29:43.830Z,84.40
2023-01-15T22:32:13.142Z,95.80
2023-01-15T22:34:40.194Z,92.70
2023-01-15T22:37:07.235Z,87.00
2023-01-15T22:39:34.588Z,93.20
2023-01-15T22:42:20.344Z,92.20
2023-01-15T22:44:48.901Z,101.03
2023-01-15T22:47:17.505Z,89.20
2023-01-15T22:49:44.579Z,94.88
2023-01-15T22:52:11.517Z,90.43
2023-01-15T22:54:38.594Z,88.95
2023-01-15T22:57:05.600Z,93.18
2023-01-15T22:59:32.531Z,88.45
2023-01-15T23:01:59.646Z,89.85
2023-01-15T23:04:27.072Z,92.47
2023-01-15T23:06:54.374Z,95.00
2023-01-15T23:09:23.611Z,85.07
2023-01-15T23:11:51.557Z,86.43
2023-01-15T23:14:19.860Z,89.10
2023-01-15T23:16:46.875Z,92.20
2023-01-15T23:19:14.469Z,92.50
2023-01-15T23:21:42.213Z,86.07
2023-01-15T23:24:09.632Z,89.82
2023-01-15T23:26:37.188Z,94.72
2023-01-15T23:29:04.564Z,86.53
2023-01-15T23:31:32.462Z,85.65
2023-01-15T23:33:59.897Z,92.03
2023-01-15T23:36:27.409Z,93.18
2023-01-15T23:38:54.769Z,81.78
2023-01-15T23:41:44.143Z,89.68
2023-01-15T23:44:34.040Z,87.25
2023-01-15T23:47:01.386Z,87.65
2023-01-15T23:49:28.517Z,90.88
2023-01-15T23:51:55.610Z,83.75
2023-01-15T23:54:25.346Z,79.53
2023-01-15T23:56:52.674Z,88.13
2023-01-15T23:59:19.615Z,79.80
